createdAt,value
2023-04-25T00:01:44.793Z,96478.47
2023-04-25T00:04:36.695Z,96480.19
2023-04-25T00:07:28.663Z,96475.31
2023-04-25T00:10:21.435Z,96471.84
2023-04-25T00:13:12.964Z,96476.34
2023-04-25T00:16:04.828Z,96477.84
2023-04-25T00:18:36.919Z,96471.84
2023-04-25T00:21:09.255Z,96473.72
2023-04-25T00:23:41.970Z,96471.03
2023-04-25T00:26:14.140Z,96472.66
2023-04-25T00:28:45.951Z,96466.97
2023-04-25T00:31:17.693Z,96480.81
2023-04-25T00:33:49.612Z,96488.25
2023-04-25T00:36:21.749Z,96486.69
2023-04-25T00:38:54.333Z,96489.19
2023-04-25T00:41:27.548Z,96474.34
2023-04-25T00:44:01.731Z,96479.25
2023-04-25T00:46:33.603Z,96476.91
2023-04-25T00:49:05.313Z,96476.81
2023-04-25T00:51:37.000Z,96482.56
2023-04-25T00:54:09.064Z,96476.47
2023-04-25T00:56:41.345Z,96473.69
2023-04-25T00:59:14.609Z,96465.63
2023-04-25T01:01:46.523Z,96466.50
2023-04-25T01:04:18.819Z,96470.72
2023-04-25T01:06:50.813Z,96474.72
2023-04-25T01:09:24.021Z,96485.97
2023-04-25T01:11:55.913Z,96491.09
2023-04-25T01:14:27.817Z,96486.63
2023-04-25T01:17:00.961Z,96496.94
2023-04-25T01:19:33.189Z,96490.94
2023-04-25T01:22:05.309Z,96496.97
2023-04-25T01:24:38.291Z,96497.63
2023-04-25T01:27:11.541Z,96493.41
2023-04-25T01:29:43.720Z,96484.41
2023-04-25T01:32:17.044Z,96479.41
2023-04-25T01:34:48.964Z,96472.13
2023-04-25T01:37:21.165Z,96469.78
2023-04-25T01:39:53.339Z,96452.94
2023-04-25T01:42:25.321Z,96454.81
2023-04-25T01:44:57.353Z,96458.78
2023-04-25T01:47:31.150Z,96462.47
2023-04-25T01:50:06.619Z,96449.34
2023-04-25T01:52:39.357Z,96442.16
2023-04-25T01:55:12.531Z,96448.06
2023-04-25T01:57:49.909Z,96443.41
2023-04-25T02:00:24.196Z,96437.03
2023-04-25T02:02:59.757Z,96446.47
2023-04-25T02:05:37.243Z,96452.44
2023-04-25T02:08:11.342Z,96439.66
2023-04-25T02:10:43.780Z,96449.88
2023-04-25T02:13:21.461Z,96466.38
2023-04-25T02:16:16.377Z,96469.22
2023-04-25T02:18:49.371Z,96473.28
2023-04-25T02:21:21.513Z,96468.69
2023-04-25T02:23:53.498Z,96457.81
2023-04-25T02:26:25.908Z,96457.09
2023-04-25T02:28:58.626Z,96450.44
2023-04-25T02:31:31.298Z,96444.03
2023-04-25T02:34:03.611Z,96434.78
2023-04-25T02:36:35.681Z,96443.06
2023-04-25T02:39:07.533Z,96443.75
2023-04-25T02:41:41.317Z,96437.69
2023-04-25T02:44:13.039Z,96441.78
2023-04-25T02:46:44.686Z,96434.56
2023-04-25T02:49:16.352Z,96442.41
2023-04-25T02:51:47.966Z,96445.00
2023-04-25T02:54:19.716Z,96450.19
2023-04-25T02:56:53.315Z,96447.09
2023-04-25T02:59:30.865Z,96446.88
2023-04-25T03:02:02.989Z,96446.59
2023-04-25T03:04:34.869Z,96451.38
2023-04-25T03:07:07.055Z,96449.69
2023-04-25T03:09:38.768Z,96450.81
2023-04-25T03:12:10.506Z,96451.19
2023-04-25T03:14:42.211Z,96457.81
2023-04-25T03:17:13.979Z,96450.47
2023-04-25T03:19:45.613Z,96456.91
2023-04-25T03:22:17.850Z,96448.13
2023-04-25T03:24:49.472Z,96446.81
2023-04-25T03:27:21.752Z,96441.75
2023-04-25T03:29:53.577Z,96436.63
2023-04-25T03:32:25.630Z,96431.22
2023-04-25T03:34:57.686Z,96432.69
2023-04-25T03:37:32.427Z,96433.44
2023-04-25T03:40:04.718Z,96437.97
2023-04-25T03:42:57.733Z,96439.19
2023-04-25T03:45:29.757Z,96428.13
2023-04-25T03:48:04.430Z,96437.28
2023-04-25T03:50:36.559Z,96435.06
2023-04-25T03:53:08.561Z,96433.56
2023-04-25T03:56:00.210Z,96439.50
2023-04-25T03:58:32.442Z,96439.50
2023-04-25T04:01:04.283Z,96437.44
2023-04-25T04:03:37.781Z,96434.41
2023-04-25T04:06:09.985Z,96438.97
2023-04-25T04:08:44.956Z,96437.13
2023-04-25T04:11:17.701Z,96444.06
2023-04-25T04:13:50.068Z,96443.56
2023-04-25T04:16:23.484Z,96439.59
2023-04-25T04:18:55.605Z,96431.53
2023-04-25T04:21:27.545Z,96433.28
2023-04-25T04:24:00.432Z,96433.09
2023-04-25T04:26:34.833Z,96434.81
2023-04-25T04:29:25.856Z,96434.28
2023-04-25T04:32:05.530Z,96430.22
2023-04-25T04:34:39.236Z,96436.44
2023-04-25T04:37:13.026Z,96443.28
2023-04-25T04:39:46.496Z,96423.28
2023-04-25T04:42:44.674Z,96433.09
2023-04-25T04:45:37.555Z,96438.03
2023-04-25T04:48:33.721Z,96433.34
2023-04-25T04:51:25.882Z,96442.72
2023-04-25T04:53:58.417Z,96447.56
2023-04-25T04:56:48.668Z,96440.03
2023-04-25T04:59:46.351Z,96447.63
2023-04-25T05:02:38.253Z,96463.16
2023-04-25T05:05:33.642Z,96456.16
2023-04-25T05:08:42.311Z,96456.69
2023-04-25T05:11:28.993Z,96449.78
2023-04-25T05:14:08.803Z,96446.50
2023-04-25T05:16:48.689Z,96444.34
2023-04-25T05:19:44.483Z,96455.22
2023-04-25T05:22:36.557Z,96459.13
2023-04-25T05:25:21.747Z,96462.06
2023-04-25T05:28:13.660Z,96456.97
2023-04-25T05:30:59.492Z,96480.66
2023-04-25T05:33:37.442Z,96479.41
2023-04-25T05:36:09.618Z,96475.19
2023-04-25T05:38:41.436Z,96488.38
2023-04-25T05:41:38.927Z,96484.50
2023-04-25T05:44:29.822Z,96477.66
2023-04-25T05:47:17.186Z,96484.69
2023-04-25T05:50:11.641Z,96475.13
2023-04-25T05:53:15.956Z,96482.75
2023-04-25T05:55:49.113Z,96485.22
2023-04-25T05:58:27.396Z,96482.34
2023-04-25T06:01:00.181Z,96487.09
2023-04-25T06:03:32.202Z,96484.09
2023-04-25T06:06:04.999Z,96494.88
2023-04-25T06:08:37.100Z,96492.84
2023-04-25T06:11:09.700Z,96493.56
2023-04-25T06:13:41.480Z,96493.72
2023-04-25T06:16:13.987Z,96493.47
2023-04-25T06:18:45.851Z,96495.41
2023-04-25T06:21:18.117Z,96494.72
2023-04-25T06:23:50.777Z,96494.81
2023-04-25T06:26:27.191Z,96499.25
2023-04-25T06:28:59.148Z,96494.09
2023-04-25T06:31:31.220Z,96499.44
2023-04-25T06:34:03.548Z,96502.25
2023-04-25T06:36:38.614Z,96500.31
2023-04-25T06:39:15.805Z,96500.38
2023-04-25T06:41:47.526Z,96502.16
2023-04-25T06:44:38.111Z,96499.00
2023-04-25T06:47:13.591Z,96493.31
2023-04-25T06:49:47.834Z,96491.00
2023-04-25T06:52:20.759Z,96484.50
2023-04-25T06:54:53.858Z,96488.97
2023-04-25T06:57:39.524Z,96480.16
2023-04-25T07:00:34.337Z,96491.25
2023-04-25T07:03:06.534Z,96485.75
2023-04-25T07:05:45.194Z,96491.13
2023-04-25T07:08:18.344Z,96483.78
2023-04-25T07:10:50.590Z,96491.34
2023-04-25T07:13:22.676Z,96487.59
2023-04-25T07:15:57.239Z,96487.84
2023-04-25T07:18:30.292Z,96476.38
2023-04-25T07:21:02.244Z,96468.50
2023-04-25T07:23:35.374Z,96473.09
2023-04-25T07:26:14.591Z,96482.22
2023-04-25T07:29:05.952Z,96485.56
2023-04-25T07:31:39.409Z,96487.75
2023-04-25T07:34:12.446Z,96490.13
2023-04-25T07:36:44.880Z,96495.28
2023-04-25T07:39:17.074Z,96493.22
2023-04-25T07:41:49.653Z,96498.34
2023-04-25T07:44:27.694Z,96494.69
2023-04-25T07:46:59.868Z,96496.13
2023-04-25T07:49:32.733Z,96496.13
2023-04-25T07:52:06.621Z,96509.72
2023-04-25T07:54:41.023Z,96505.94
2023-04-25T07:57:20.319Z,96500.22
2023-04-25T07:59:53.968Z,96510.19
2023-04-25T08:02:27.264Z,96506.56
2023-04-25T08:04:59.313Z,96504.22
2023-04-25T08:07:31.206Z,96525.44
2023-04-25T08:10:08.211Z,96519.16
2023-04-25T08:12:40.063Z,96525.63
2023-04-25T08:15:13.051Z,96539.13
2023-04-25T08:17:45.299Z,96544.16
2023-04-25T08:20:17.915Z,96540.00
2023-04-25T08:22:50.221Z,96545.09
2023-04-25T08:25:52.190Z,96539.03
2023-04-25T08:28:27.566Z,96547.41
2023-04-25T08:31:00.831Z,96556.44
2023-04-25T08:33:39.530Z,96555.31
2023-04-25T08:36:39.054Z,96563.38
2023-04-25T08:39:24.567Z,96561.75
2023-04-25T08:42:16.634Z,96566.84
2023-04-25T08:44:49.890Z,96582.53
2023-04-25T08:47:24.140Z,96582.47
2023-04-25T08:50:04.025Z,96587.19
2023-04-25T08:52:45.349Z,96576.00
2023-04-25T08:55:18.073Z,96592.72
2023-04-25T08:57:51.373Z,96590.84
2023-04-25T09:00:23.460Z,96600.47
2023-04-25T09:02:56.185Z,96616.00
2023-04-25T09:05:29.909Z,96631.31
2023-04-25T09:08:03.033Z,96637.06
2023-04-25T09:10:35.636Z,96647.44
2023-04-25T09:13:10.217Z,96656.25
2023-04-25T09:16:00.521Z,96673.31
2023-04-25T09:18:53.423Z,96670.53
2023-04-25T09:21:25.644Z,96678.53
2023-04-25T09:23:57.351Z,96673.22
2023-04-25T09:26:29.920Z,96674.72
2023-04-25T09:29:08.859Z,96670.19
2023-04-25T09:31:44.519Z,96655.38
2023-04-25T09:34:19.806Z,96663.97
2023-04-25T09:37:02.671Z,96661.31
2023-04-25T09:40:00.145Z,96656.56
2023-04-25T09:42:33.140Z,96653.94
2023-04-25T09:45:05.169Z,96656.06
2023-04-25T09:47:42.057Z,96657.91
2023-04-25T09:50:18.509Z,96660.78
2023-04-25T09:53:04.675Z,96673.56
2023-04-25T09:55:47.217Z,96677.47
2023-04-25T09:58:19.443Z,96677.91
2023-04-25T10:00:52.710Z,96681.50
2023-04-25T10:03:39.601Z,96681.25
2023-04-25T10:06:30.109Z,96689.97
2023-04-25T10:09:03.093Z,96685.75
2023-04-25T10:11:36.208Z,96690.47
2023-04-25T10:14:08.306Z,96698.38
2023-04-25T10:16:42.496Z,96696.28
2023-04-25T10:19:14.367Z,96696.31
2023-04-25T10:22:14.329Z,96698.41
2023-04-25T10:24:47.351Z,96694.75
2023-04-25T10:27:19.453Z,96700.91
2023-04-25T10:30:07.898Z,96698.31
2023-04-25T10:32:39.723Z,96694.56
2023-04-25T10:35:26.445Z,96688.81
2023-04-25T10:38:07.033Z,96691.91
2023-04-25T10:40:38.827Z,96689.06
2023-04-25T10:43:32.480Z,96686.03
2023-04-25T10:46:28.192Z,96689.03
2023-04-25T10:49:01.972Z,96679.00
2023-04-25T10:51:51.531Z,96685.88
2023-04-25T10:54:26.926Z,96687.00
2023-04-25T10:56:59.649Z,96683.97
2023-04-25T10:59:31.867Z,96686.84
2023-04-25T11:02:12.827Z,96687.75
2023-04-25T11:04:45.566Z,96696.56
2023-04-25T11:07:23.423Z,96690.25
2023-04-25T11:09:55.298Z,96692.03
2023-04-25T11:12:27.229Z,96697.31
2023-04-25T11:15:04.328Z,96695.09
2023-04-25T11:17:36.343Z,96695.69
2023-04-25T11:20:09.121Z,96691.38
2023-04-25T11:22:41.586Z,96682.84
2023-04-25T11:25:16.933Z,96675.97
2023-04-25T11:27:53.214Z,96681.69
2023-04-25T11:30:27.147Z,96681.84
2023-04-25T11:32:59.071Z,96679.22
2023-04-25T11:35:31.792Z,96687.59
2023-04-25T11:38:05.189Z,96680.22
2023-04-25T11:40:37.398Z,96684.09
2023-04-25T11:43:10.388Z,96686.97
2023-04-25T11:45:42.143Z,96686.84
2023-04-25T11:48:15.016Z,96694.41
2023-04-25T11:50:47.804Z,96694.56
2023-04-25T11:53:19.711Z,96691.53
2023-04-25T11:55:52.103Z,96690.13
2023-04-25T11:58:24.614Z,96688.41
2023-04-25T12:00:57.457Z,96697.25
2023-04-25T12:03:31.075Z,96695.09
2023-04-25T12:06:04.687Z,96696.00
2023-04-25T12:08:37.261Z,96699.84
2023-04-25T12:11:22.517Z,96690.75
2023-04-25T12:13:54.743Z,96696.38
2023-04-25T12:16:28.044Z,96695.34
2023-04-25T12:19:00.138Z,96691.38
2023-04-25T12:21:35.379Z,96691.88
2023-04-25T12:24:15.701Z,96696.59
2023-04-25T12:27:03.111Z,96699.31
2023-04-25T12:29:48.657Z,96700.88
2023-04-25T12:32:21.318Z,96690.94
2023-04-25T12:34:53.106Z,96695.13
2023-04-25T12:37:24.748Z,96694.38
2023-04-25T12:39:56.371Z,96695.53
2023-04-25T12:42:28.028Z,96692.34
2023-04-25T12:44:59.554Z,96690.31
2023-04-25T12:47:31.173Z,96692.34
2023-04-25T12:50:02.790Z,96693.31
2023-04-25T12:52:34.364Z,96700.44
2023-04-25T12:55:06.552Z,96700.56
2023-04-25T12:57:38.175Z,96697.56
2023-04-25T13:00:10.444Z,96696.75
2023-04-25T13:02:42.356Z,96695.91
2023-04-25T13:05:14.165Z,96690.56
2023-04-25T13:07:45.922Z,96686.06
2023-04-25T13:10:18.471Z,96698.03
2023-04-25T13:12:50.216Z,96700.38
2023-04-25T13:15:22.418Z,96693.31
2023-04-25T13:17:54.296Z,96695.97
2023-04-25T13:20:25.962Z,96707.59
2023-04-25T13:22:59.629Z,96712.94
2023-04-25T13:25:32.296Z,96715.56
2023-04-25T13:28:04.463Z,96708.28
2023-04-25T13:30:36.561Z,96711.97
2023-04-25T13:33:08.806Z,96716.00
2023-04-25T13:35:41.635Z,96721.69
2023-04-25T13:38:14.239Z,96732.34
2023-04-25T13:40:45.991Z,96734.53
2023-04-25T13:43:17.872Z,96726.25
2023-04-25T13:45:50.633Z,96733.72
2023-04-25T13:48:22.716Z,96739.91
2023-04-25T13:50:54.530Z,96730.63
2023-04-25T13:53:26.392Z,96734.19
2023-04-25T13:55:58.153Z,96730.72
2023-04-25T13:58:30.107Z,96716.19
2023-04-25T14:01:03.540Z,96716.53
2023-04-25T14:03:35.757Z,96707.38
2023-04-25T14:06:08.531Z,96695.41
2023-04-25T14:08:41.651Z,96697.44
2023-04-25T14:11:13.843Z,96695.84
2023-04-25T14:13:46.302Z,96696.84
2023-04-25T14:16:18.727Z,96695.72
2023-04-25T14:18:51.018Z,96694.69
2023-04-25T14:21:23.316Z,96688.16
2023-04-25T14:23:55.407Z,96689.03
2023-04-25T14:26:27.329Z,96683.41
2023-04-25T14:29:00.322Z,96686.63
2023-04-25T14:31:32.807Z,96679.75
2023-04-25T14:34:05.959Z,96676.25
2023-04-25T14:36:39.574Z,96672.84
2023-04-25T14:39:13.821Z,96680.75
2023-04-25T14:41:46.342Z,96678.34
2023-04-25T14:44:18.530Z,96675.88
2023-04-25T14:46:51.295Z,96685.38
2023-04-25T14:49:23.632Z,96676.38
2023-04-25T14:51:55.559Z,96669.72
2023-04-25T14:54:28.766Z,96675.00
2023-04-25T14:57:01.048Z,96675.09
2023-04-25T14:59:32.821Z,96673.41
2023-04-25T15:02:04.475Z,96668.75
2023-04-25T15:04:36.656Z,96677.22
2023-04-25T15:07:08.345Z,96677.47
2023-04-25T15:09:39.924Z,96666.94
2023-04-25T15:12:12.052Z,96667.22
2023-04-25T15:14:43.580Z,96674.38
2023-04-25T15:17:15.339Z,96670.03
2023-04-25T15:19:46.977Z,96679.16
2023-04-25T15:22:18.692Z,96678.50
2023-04-25T15:24:50.296Z,96677.63
2023-04-25T15:27:22.020Z,96685.13
2023-04-25T15:29:54.425Z,96674.09
2023-04-25T15:32:26.664Z,96672.34
2023-04-25T15:34:58.550Z,96677.44
2023-04-25T15:37:30.393Z,96675.25
2023-04-25T15:40:07.974Z,96686.53
2023-04-25T15:42:42.753Z,96686.34
2023-04-25T15:45:15.678Z,96693.66
2023-04-25T15:47:48.006Z,96700.09
2023-04-25T15:50:19.905Z,96704.84
2023-04-25T15:52:52.558Z,96708.50
2023-04-25T15:55:24.378Z,96708.00
2023-04-25T15:57:56.231Z,96700.97
2023-04-25T16:00:28.194Z,96699.88
2023-04-25T16:03:00.441Z,96707.72
2023-04-25T16:05:32.244Z,96705.59
2023-04-25T16:08:04.146Z,96703.81
2023-04-25T16:10:36.218Z,96708.13
2023-04-25T16:13:08.059Z,96697.84
2023-04-25T16:15:39.875Z,96691.53
2023-04-25T16:18:12.040Z,96700.09
2023-04-25T16:20:44.686Z,96704.97
2023-04-25T16:23:17.424Z,96704.03
2023-04-25T16:25:49.419Z,96703.66
2023-04-25T16:28:22.672Z,96699.50
2023-04-25T16:30:54.507Z,96694.88
2023-04-25T16:33:50.102Z,96690.72
2023-04-25T16:36:23.483Z,96694.13
2023-04-25T16:38:55.337Z,96693.63
2023-04-25T16:41:28.187Z,96697.66
2023-04-25T16:43:59.958Z,96699.69
2023-04-25T16:46:32.421Z,96697.56
2023-04-25T16:49:04.653Z,96698.69
2023-04-25T16:51:36.882Z,96700.69
2023-04-25T16:54:09.181Z,96710.81
2023-04-25T16:56:41.782Z,96708.63
2023-04-25T16:59:14.836Z,96710.03
2023-04-25T17:01:47.428Z,96712.56
2023-04-25T17:04:19.975Z,96707.75
2023-04-25T17:06:52.773Z,96713.50
2023-04-25T17:09:24.611Z,96718.88
2023-04-25T17:11:56.937Z,96717.78
2023-04-25T17:14:29.416Z,96714.47
2023-04-25T17:17:01.742Z,96717.16
2023-04-25T17:19:33.718Z,96723.16
2023-04-25T17:22:05.899Z,96728.50
2023-04-25T17:24:37.904Z,96724.88
2023-04-25T17:27:10.885Z,96731.22
2023-04-25T17:29:42.538Z,96732.94
2023-04-25T17:32:16.309Z,96734.31
2023-04-25T17:34:49.236Z,96735.47
2023-04-25T17:37:20.976Z,96739.28
2023-04-25T17:39:52.750Z,96737.84
2023-04-25T17:42:24.411Z,96740.38
2023-04-25T17:44:56.131Z,96729.16
2023-04-25T17:47:27.873Z,96733.56
2023-04-25T17:50:00.142Z,96728.97
2023-04-25T17:52:31.874Z,96735.94
2023-04-25T17:55:03.661Z,96741.03
2023-04-25T17:57:35.222Z,96745.22
2023-04-25T18:00:07.812Z,96745.34
2023-04-25T18:02:43.827Z,96742.75
2023-04-25T18:05:15.782Z,96745.47
2023-04-25T18:07:47.691Z,96734.94
2023-04-25T18:10:19.745Z,96742.75
2023-04-25T18:12:51.534Z,96748.66
2023-04-25T18:15:23.780Z,96755.34
2023-04-25T18:17:55.521Z,96753.00
2023-04-25T18:20:27.636Z,96760.63
2023-04-25T18:22:59.431Z,96760.25
2023-04-25T18:25:31.433Z,96763.72
2023-04-25T18:28:03.788Z,96761.38
2023-04-25T18:30:36.511Z,96760.56
2023-04-25T18:33:09.416Z,96760.94
2023-04-25T18:35:51.487Z,96763.28
2023-04-25T18:41:18.288Z,96766.34
2023-04-25T18:43:57.100Z,96773.31
2023-04-25T18:46:30.737Z,96773.13
2023-04-25T18:49:02.448Z,96779.53
2023-04-25T18:51:35.124Z,96778.81
2023-04-25T18:54:07.198Z,96780.44
2023-04-25T18:56:41.489Z,96781.81
2023-04-25T18:59:14.328Z,96785.59
2023-04-25T19:01:46.460Z,96784.28
2023-04-25T19:04:19.154Z,96786.00
2023-04-25T19:06:52.968Z,96793.28
2023-04-25T19:09:25.837Z,96802.38
2023-04-25T19:11:58.180Z,96797.72
2023-04-25T19:14:32.554Z,96798.22
2023-04-25T19:17:04.995Z,96800.78
2023-04-25T19:19:37.428Z,96806.06
2023-04-25T19:22:10.368Z,96801.38
2023-04-25T19:24:43.447Z,96801.09
2023-04-25T19:27:15.539Z,96803.13
2023-04-25T19:29:47.431Z,96805.00
2023-04-25T19:32:20.186Z,96799.94
2023-04-25T19:34:53.567Z,96797.66
2023-04-25T19:37:25.406Z,96803.75
2023-04-25T19:39:57.955Z,96789.69
2023-04-25T19:42:30.319Z,96797.84
2023-04-25T19:45:02.921Z,96802.75
2023-04-25T19:47:35.510Z,96802.66
2023-04-25T19:50:08.984Z,96807.88
2023-04-25T19:52:41.024Z,96817.97
2023-04-25T19:55:12.802Z,96813.59
2023-04-25T19:57:44.468Z,96809.44
2023-04-25T20:00:19.841Z,96808.09
2023-04-25T20:02:52.051Z,96803.16
2023-04-25T20:05:23.823Z,96810.50
2023-04-25T20:07:55.549Z,96801.34
2023-04-25T20:10:27.262Z,96805.06
2023-04-25T20:12:59.131Z,96810.03
2023-04-25T20:15:31.044Z,96813.72
2023-04-25T20:18:02.679Z,96807.72
2023-04-25T20:20:34.661Z,96810.84
2023-04-25T20:23:06.355Z,96808.78
2023-04-25T20:25:38.586Z,96814.56
2023-04-25T20:28:10.443Z,96819.41
2023-04-25T20:30:42.170Z,96814.06
2023-04-25T20:33:13.992Z,96811.97
2023-04-25T20:35:45.695Z,96816.53
2023-04-25T20:38:17.613Z,96816.09
2023-04-25T20:40:49.460Z,96822.25
2023-04-25T20:43:21.786Z,96817.63
2023-04-25T20:45:53.687Z,96816.97
2023-04-25T20:48:26.169Z,96819.34
2023-04-25T20:50:57.840Z,96815.94
2023-04-25T20:53:29.824Z,96820.81
2023-04-25T20:56:02.173Z,96820.09
2023-04-25T20:58:34.123Z,96823.31
2023-04-25T21:01:05.989Z,96824.25
2023-04-25T21:03:38.222Z,96825.28
2023-04-25T21:06:10.123Z,96821.38
2023-04-25T21:08:41.851Z,96823.50
2023-04-25T21:11:14.295Z,96816.72
2023-04-25T21:13:46.049Z,96818.41
2023-04-25T21:16:18.544Z,96818.84
2023-04-25T21:18:51.173Z,96814.38
2023-04-25T21:21:29.631Z,96811.25
2023-04-25T21:24:01.770Z,96808.13
2023-04-25T21:26:33.700Z,96810.13
2023-04-25T21:29:05.891Z,96806.22
2023-04-25T21:31:38.032Z,96806.38
2023-04-25T21:34:10.117Z,96810.91
2023-04-25T21:36:42.820Z,96810.50
2023-04-25T21:39:15.162Z,96814.50
2023-04-25T21:41:46.977Z,96813.47
2023-04-25T21:44:19.342Z,96811.66
2023-04-25T21:46:52.079Z,96818.13
2023-04-25T21:49:23.994Z,96822.06
2023-04-25T21:51:56.916Z,96826.34
2023-04-25T21:54:29.962Z,96823.00
2023-04-25T21:57:03.350Z,96821.50
2023-04-25T21:59:35.438Z,96828.50
2023-04-25T22:02:07.839Z,96821.91
2023-04-25T22:04:42.230Z,96825.00
2023-04-25T22:07:15.233Z,96837.41
2023-04-25T22:09:54.357Z,96828.91
2023-04-25T22:12:27.475Z,96833.97
2023-04-25T22:14:59.594Z,96833.34
2023-04-25T22:17:32.814Z,96831.28
2023-04-25T22:20:05.074Z,96836.16
2023-04-25T22:22:36.620Z,96829.88
2023-04-25T22:25:09.309Z,96838.66
2023-04-25T22:27:40.890Z,96842.91
2023-04-25T22:30:12.446Z,96844.34
2023-04-25T22:32:44.176Z,96843.53
2023-04-25T22:35:15.819Z,96847.81
2023-04-25T22:37:47.383Z,96843.91
2023-04-25T22:40:19.124Z,96852.75
2023-04-25T22:42:50.731Z,96842.09
2023-04-25T22:45:22.270Z,96843.19
2023-04-25T22:47:53.974Z,96841.00
2023-04-25T22:50:25.760Z,96849.88
2023-04-25T22:52:57.558Z,96841.06
2023-04-25T22:55:30.368Z,96845.13
2023-04-25T22:58:03.775Z,96838.25
2023-04-25T23:00:35.744Z,96846.34
2023-04-25T23:03:07.636Z,96846.84
2023-04-25T23:05:39.378Z,96848.19
2023-04-25T23:08:11.331Z,96845.28
2023-04-25T23:10:43.496Z,96848.69
2023-04-25T23:13:15.327Z,96849.59
2023-04-25T23:15:46.880Z,96850.75
2023-04-25T23:18:18.803Z,96855.75
2023-04-25T23:20:50.509Z,96850.84
2023-04-25T23:23:22.357Z,96847.59
2023-04-25T23:25:54.606Z,96854.50
2023-04-25T23:28:26.337Z,96852.59
2023-04-25T23:31:05.901Z,96850.28
2023-04-25T23:33:37.816Z,96857.25
2023-04-25T23:36:17.221Z,96860.72
2023-04-25T23:38:50.135Z,96855.72
2023-04-25T23:41:22.207Z,96867.06
2023-04-25T23:43:54.139Z,96868.75
2023-04-25T23:46:26.045Z,96870.06
2023-04-25T23:48:59.227Z,96874.50
2023-04-25T23:51:31.113Z,96875.47
2023-04-25T23:54:05.234Z,96879.88
2023-04-25T23:56:37.687Z,96883.28
2023-04-25T23:59:11.006Z,96889.00
